Aérodrome :
LOGIN :

S'inscrire | Disclaimer

   EN    FR    IT 

 










Légende :    VFR   VFR Marginal   IFR   IFR Intensif   IFR Très Intensif
Visi : 
Plafond : 
>= 8 km
>= 3000ft
5 à 8 km
1000 à 3000 ft
1500m à 5 km
500 à 1000 ft
800 à 1500m
200 à 500 ft
< 800m
< 200 ft
Symboles :   Orages  Brouillard  Fortes neiges  Fortes précipitations  Vent > 20 kt
SIGMETs :   Divers  Orages  Givrage  Turbulence  Onde Orograph.  Cendres Volcan.






- Altitude de l'aérodrome : 26 ft
- Code IATA : SYY


EGPO - Stornoway

DERNIER METAR :
  • 022220Z AUTO 00000KT 9999 OVC031/// 14/09 Q1012

METARs EXPIRÉS :
  • 022150Z AUTO VRB02KT 9999 OVC030/// 14/10 Q1013
  • 022120Z AUTO 08003KT 9999 OVC028/// 14/09 Q1013
  • 022050Z AUTO 35003KT 9999 OVC027/// 13/09 Q1013
  • 022020Z AUTO 34003KT 9999 OVC027/// 13/09 Q1013
  • 021950Z AUTO 33003KT 9999 OVC028/// 14/09 Q1013

TAF TAF EGPO
Valide du 02 à 21h jusqu'au 03 à 06h UTC


021955Z 0221/0306 16005KT 9999 SCT030
ATIS : +44 1851 707 444



MET'MAP, la Météo Aéronautique d'un coup d'oeil ! - Copyright ORBIFLY Décembre 2007 - Disclaimer

ORBIFLY MET'MAP TEAM :

Programmation & Développement : Alexandra Zaïnal
Sur une idée originale de : Baudouin d'Aumeries
Assistance à la programmation : Marc-Olivier Méhu
Soutien technique & logistique : Manuel Goepfert

Contact : metmap@orbifly.com




SOURCES & CREDITS :

   NOAA